Time;durP1;ratioP1;P1;durP2;ratioP2;P2;SDS_P1;SDS_P2;PMS_P1;PMS_P2;Temp;Humidity;BMP_temperature;BMP_pressure;BME280_temperature;BME280_humidity;BME280_pressure;Samples;Min_cycle;Max_cycle;Signal;HPM_P1;HPM_P2
2023/03/20 00:01:17;;;;;;;17.60;12.37;;;8.90;99.90;;;;;;4970067;28;20047;-75
2023/03/20 00:03:43;;;;;;;19.40;13.27;;;8.90;99.90;;;;;;4974440;28;20248;-75
2023/03/20 00:06:19;;;;;;;18.98;13.55;;;8.80;99.90;;;;;;4989777;28;20039;-75
2023/03/20 00:08:46;;;;;;;20.30;12.43;;;8.90;99.90;;;;;;4967742;28;20596;-74
2023/03/20 00:11:33;;;;;;;19.08;12.68;;;8.80;99.90;;;;;;4987463;28;20053;-75
2023/03/20 00:14:03;;;;;;;23.45;13.35;;;8.90;99.90;;;;;;4983339;28;20093;-74
2023/03/20 00:16:34;;;;;;;22.15;12.85;;;8.80;99.90;;;;;;4990245;28;20496;-74
2023/03/20 00:19:02;;;;;;;17.58;11.88;;;8.90;99.90;;;;;;4982713;28;20047;-74
2023/03/20 00:21:28;;;;;;;20.08;12.63;;;9.00;99.90;;;;;;4980588;28;20054;-75
2023/03/20 00:23:54;;;;;;;25.42;13.73;;;8.90;99.90;;;;;;4974142;28;20129;-74
2023/03/20 00:26:25;;;;;;;21.73;13.30;;;8.80;99.90;;;;;;4992736;28;20451;-74
2023/03/20 00:28:51;;;;;;;18.73;12.10;;;8.90;99.90;;;;;;4972720;28;20057;-74
2023/03/20 00:31:24;;;;;;;18.98;11.07;;;8.90;99.90;;;;;;4991569;28;20054;-74
2023/03/20 00:33:52;;;;;;;20.77;13.60;;;8.90;99.90;;;;;;4990564;28;20042;-74
2023/03/20 00:36:18;;;;;;;22.90;13.70;;;8.90;99.90;;;;;;4973803;28;20097;-74
2023/03/20 00:38:43;;;;;;;21.30;14.98;;;8.90;99.90;;;;;;4970468;28;20125;-75
2023/03/20 00:41:38;;;;;;;19.80;12.90;;;8.90;99.90;;;;;;4988892;28;20075;-75
2023/03/20 00:44:25;;;;;;;22.40;13.68;;;8.90;99.90;;;;;;4991149;28;20062;-74
2023/03/20 00:47:18;;;;;;;28.38;13.35;;;8.80;99.90;;;;;;4991368;28;20050;-74
2023/03/20 00:49:46;;;;;;;20.48;13.77;;;8.80;99.90;;;;;;4991184;28;20507;-74
2023/03/20 00:52:13;;;;;;;;;;;8.80;99.90;;;;;;4990815;28;20153;-74
2023/03/20 00:54:39;;;;;;;25.67;14.82;;;8.70;99.90;;;;;;4963246;28;19926;-74
2023/03/20 00:57:11;;;;;;;16.63;12.13;;;8.70;99.90;;;;;;4990635;28;20050;-74
2023/03/20 00:59:40;;;;;;;17.30;10.57;;;8.70;99.90;;;;;;4989902;28;20046;-74
2023/03/20 01:02:07;;;;;;;18.95;11.05;;;8.70;99.90;;;;;;4990962;28;20046;-74
2023/03/20 01:04:40;;;;;;;20.50;10.57;;;8.70;99.90;;;;;;4987045;28;20053;-74
2023/03/20 01:07:09;;;;;;;21.42;12.52;;;8.70;99.90;;;;;;4974000;28;20073;-74
2023/03/20 01:09:36;;;;;;;20.83;11.27;;;8.60;99.90;;;;;;4990412;28;20042;-74
2023/03/20 01:12:06;;;;;;;20.00;11.43;;;8.70;99.90;;;;;;4969734;28;20531;-75
2023/03/20 01:14:32;;;;;;;21.33;11.47;;;8.70;99.90;;;;;;4966797;28;20121;-74
2023/03/20 01:16:59;;;;;;;24.92;14.13;;;8.70;99.90;;;;;;4990617;28;20389;-75
2023/03/20 01:19:25;;;;;;;33.88;13.48;;;8.60;99.90;;;;;;4990636;28;20781;-74
2023/03/20 01:21:50;;;;;;;24.83;13.02;;;8.70;99.90;;;;;;4989321;28;20121;-75
2023/03/20 01:24:16;;;;;;;24.42;11.77;;;8.70;99.90;;;;;;4988748;28;20119;-74
2023/03/20 01:26:43;;;;;;;20.25;12.55;;;8.70;99.90;;;;;;4990388;28;20113;-74
2023/03/20 01:29:25;;;;;;;17.98;12.68;;;8.70;99.90;;;;;;4983287;28;20399;-74
2023/03/20 01:31:51;;;;;;;23.77;12.95;;;8.60;99.90;;;;;;4989037;28;20141;-74
2023/03/20 01:34:19;;;;;;;15.30;11.50;;;8.60;99.90;;;;;;4990009;28;20559;-74
2023/03/20 01:36:54;;;;;;;18.42;11.93;;;8.70;99.90;;;;;;4973136;28;20105;-74
2023/03/20 01:39:23;;;;;;;23.70;12.65;;;8.80;99.90;;;;;;4988510;28;20046;-74
2023/03/20 01:41:51;;;;;;;16.27;10.55;;;8.70;99.90;;;;;;4990173;28;20432;-75
2023/03/20 01:44:27;;;;;;;15.35;9.88;;;8.60;99.90;;;;;;4988954;28;20366;-74
2023/03/20 01:46:54;;;;;;;17.55;12.07;;;8.60;99.90;;;;;;4970587;28;20124;-74
2023/03/20 01:49:20;;;;;;;21.23;11.90;;;8.60;99.90;;;;;;4972527;28;20148;-74
2023/03/20 01:51:50;;;;;;;18.58;10.70;;;8.60;99.90;;;;;;4973391;28;20523;-74
2023/03/20 01:54:29;;;;;;;21.38;11.10;;;8.60;99.90;;;;;;4988220;28;20072;-75
2023/03/20 01:57:01;;;;;;;28.95;12.23;;;8.60;99.90;;;;;;4990063;28;20403;-74
2023/03/20 01:59:34;;;;;;;24.00;12.73;;;8.50;99.90;;;;;;4991422;28;20423;-74
2023/03/20 02:02:00;;;;;;;21.80;11.73;;;8.50;99.90;;;;;;4976416;28;20101;-73
2023/03/20 02:04:32;;;;;;;21.75;10.07;;;8.50;99.90;;;;;;4968524;28;20527;-74
2023/03/20 02:06:59;;;;;;;24.15;11.60;;;8.50;99.90;;;;;;4988580;28;20092;-74
2023/03/20 02:09:25;;;;;;;27.63;11.88;;;8.50;99.90;;;;;;4976484;28;20103;-74
2023/03/20 02:11:52;;;;;;;19.27;11.02;;;8.50;99.90;;;;;;4968759;28;20054;-74
2023/03/20 02:14:19;;;;;;;23.27;9.48;;;8.40;99.90;;;;;;4988444;28;20108;-74
2023/03/20 02:16:46;;;;;;;26.25;11.02;;;8.40;99.90;;;;;;4989581;28;20073;-74
2023/03/20 02:19:27;;;;;;;21.30;10.50;;;8.40;99.90;;;;;;4965997;28;20141;-74
2023/03/20 02:22:21;;;;;;;18.65;10.27;;;8.50;99.90;;;;;;4988885;28;20495;-74
2023/03/20 02:24:46;;;;;;;26.65;11.00;;;8.40;99.90;;;;;;4972149;28;20510;-75
2023/03/20 02:27:24;;;;;;;18.50;10.02;;;8.40;99.90;;;;;;4971733;28;20046;-74
2023/03/20 02:30:31;;;;;;;15.68;10.00;;;8.40;99.90;;;;;;4990350;28;20108;-74
2023/03/20 02:33:03;;;;;;;19.30;10.00;;;8.40;99.90;;;;;;4957437;28;20521;-74
2023/03/20 02:35:42;;;;;;;26.45;10.70;;;8.40;99.90;;;;;;4985018;28;20054;-74
2023/03/20 02:38:25;;;;;;;31.15;10.73;;;8.40;99.90;;;;;;4985785;28;20046;-74
2023/03/20 02:41:03;;;;;;;19.55;11.18;;;8.40;99.90;;;;;;4988235;28;20054;-74
2023/03/20 02:43:40;;;;;;;27.98;13.02;;;8.30;99.90;;;;;;4971902;28;20046;-74
2023/03/20 02:46:18;;;;;;;29.00;12.90;;;8.40;99.90;;;;;;4987406;28;20125;-74
2023/03/20 02:49:07;;;;;;;27.08;12.88;;;8.40;99.90;;;;;;4971538;28;20054;-74
2023/03/20 02:51:50;;;;;;;23.67;13.75;;;8.40;99.90;;;;;;4984408;28;20073;-74
2023/03/20 02:54:55;;;;;;;29.13;14.25;;;8.30;99.90;;;;;;4985710;28;20065;-74
2023/03/20 02:57:24;;;;;;;26.83;15.13;;;8.30;99.90;;;;;;4955092;28;20082;-74
2023/03/20 02:59:56;;;;;;;;;;;8.30;99.90;;;;;;4987485;28;20042;-74
2023/03/20 03:02:33;;;;;;;24.70;13.30;;;8.30;99.90;;;;;;4971480;28;19922;-74
2023/03/20 03:05:03;;;;;;;24.27;14.18;;;8.20;99.90;;;;;;4967786;28;20047;-74
2023/03/20 03:07:33;;;;;;;21.23;13.65;;;8.30;99.90;;;;;;4966874;28;20042;-74
2023/03/20 03:10:21;;;;;;;26.70;13.77;;;8.30;99.90;;;;;;4964792;28;20054;-74
2023/03/20 03:12:53;;;;;;;20.25;14.75;;;8.30;99.90;;;;;;4986802;28;20055;-74
2023/03/20 03:15:28;;;;;;;19.70;13.85;;;8.30;99.90;;;;;;4965261;28;20073;-75
2023/03/20 03:17:57;;;;;;;26.27;15.52;;;8.30;99.90;;;;;;4970718;28;20046;-75
2023/03/20 03:20:35;;;;;;;28.40;15.25;;;8.30;99.90;;;;;;4985551;28;20039;-73
2023/03/20 03:23:01;;;;;;;26.83;13.98;;;8.30;99.90;;;;;;4988165;28;20038;-74
2023/03/20 03:25:34;;;;;;;23.60;13.98;;;8.30;99.90;;;;;;4990146;28;20086;-74
2023/03/20 03:28:25;;;;;;;26.98;16.25;;;8.30;99.90;;;;;;4986982;28;20122;-74
2023/03/20 03:30:52;;;;;;;24.63;14.57;;;8.30;99.90;;;;;;4992105;28;20092;-74
2023/03/20 03:33:20;;;;;;;24.50;15.30;;;8.30;99.90;;;;;;4994872;28;20111;-74
2023/03/20 03:35:47;;;;;;;25.08;15.40;;;8.20;99.90;;;;;;4977493;28;20061;-73
2023/03/20 03:38:25;;;;;;;32.13;15.23;;;8.10;99.90;;;;;;4992340;28;20058;-73
2023/03/20 03:41:10;;;;;;;26.52;15.20;;;8.20;99.90;;;;;;4976319;28;20039;-73
2023/03/20 03:44:05;;;;;;;28.48;14.63;;;8.20;99.90;;;;;;4970559;28;20058;-73
2023/03/20 03:46:44;;;;;;;27.38;15.50;;;8.20;99.90;;;;;;4983458;28;20065;-74
2023/03/20 03:49:12;;;;;;;;;;;8.30;99.90;;;;;;4990312;28;20093;-74
2023/03/20 03:51:41;;;;;;;25.52;16.67;;;8.20;99.90;;;;;;4994535;28;19921;-74
2023/03/20 03:54:18;;;;;;;25.70;17.63;;;8.20;99.90;;;;;;4993468;28;20150;-74
2023/03/20 03:56:47;;;;;;;33.33;17.80;;;8.20;99.90;;;;;;4994723;28;20470;-74
2023/03/20 03:59:31;;;;;;;30.80;16.38;;;8.30;99.90;;;;;;4976999;28;20053;-74
2023/03/20 04:02:00;;;;;;;31.98;18.08;;;8.20;99.90;;;;;;4992434;28;20046;-74
2023/03/20 04:04:26;;;;;;;;;;;8.10;99.90;;;;;;4994429;28;20046;-74
2023/03/20 04:06:53;;;;;;;32.13;18.30;;;8.20;99.90;;;;;;4977421;28;19977;-74
2023/03/20 04:09:18;;;;;;;32.38;18.42;;;8.10;99.90;;;;;;4995060;28;20043;-74
2023/03/20 04:11:48;;;;;;;32.15;17.75;;;8.10;99.90;;;;;;4975925;28;20057;-74
2023/03/20 04:14:14;;;;;;;29.67;17.15;;;8.10;99.90;;;;;;4993859;28;20061;-74
2023/03/20 04:16:39;;;;;;;37.28;18.92;;;8.10;99.90;;;;;;4977573;28;20046;-74
2023/03/20 04:19:05;;;;;;;31.08;18.50;;;8.30;99.90;;;;;;4994361;28;20108;-74
2023/03/20 04:21:32;;;;;;;36.83;19.58;;;8.20;99.90;;;;;;4992271;28;20073;-74
2023/03/20 04:23:57;;;;;;;25.02;18.55;;;8.20;99.90;;;;;;4980993;28;20418;-74
2023/03/20 04:26:23;;;;;;;31.60;18.90;;;8.20;99.90;;;;;;4978924;28;20048;-74
2023/03/20 04:28:50;;;;;;;23.75;16.50;;;8.10;99.90;;;;;;4988044;28;20042;-74
2023/03/20 04:31:16;;;;;;;33.10;19.95;;;8.10;99.90;;;;;;4994258;28;20129;-74
2023/03/20 04:33:42;;;;;;;25.40;17.02;;;8.10;99.90;;;;;;4994182;28;20050;-74
2023/03/20 04:36:09;;;;;;;25.75;16.08;;;8.10;99.90;;;;;;4989944;28;20049;-74
2023/03/20 04:38:35;;;;;;;27.13;16.05;;;8.10;99.90;;;;;;4984062;28;20496;-74
2023/03/20 04:41:01;;;;;;;26.40;15.63;;;8.10;99.90;;;;;;4973802;28;20043;-74
2023/03/20 04:43:27;;;;;;;29.88;17.48;;;8.10;99.90;;;;;;4991356;28;20054;-74
2023/03/20 04:45:53;;;;;;;29.65;15.65;;;8.10;99.90;;;;;;4986296;28;20046;-74
2023/03/20 04:48:18;;;;;;;22.17;15.13;;;8.10;99.90;;;;;;4969812;28;20056;-74
2023/03/20 04:50:49;;;;;;;29.30;15.35;;;8.10;99.90;;;;;;4991495;28;20047;-75
2023/03/20 04:53:16;;;;;;;21.40;13.43;;;8.10;99.90;;;;;;4983798;28;20057;-75
2023/03/20 04:55:42;;;;;;;18.83;12.43;;;8.10;99.90;;;;;;4972274;28;20809;-74
2023/03/20 04:58:08;;;;;;;26.90;13.30;;;8.10;99.90;;;;;;4989446;28;20056;-74
2023/03/20 05:00:34;;;;;;;22.65;13.02;;;8.00;99.90;;;;;;4990158;28;20125;-74
2023/03/20 05:03:00;;;;;;;19.33;13.00;;;8.10;99.90;;;;;;4989822;28;20122;-73
2023/03/20 05:05:26;;;;;;;27.23;13.05;;;8.00;99.90;;;;;;4970625;28;20046;-74
2023/03/20 05:07:51;;;;;;;19.52;12.60;;;8.00;99.90;;;;;;4990903;28;20140;-74
2023/03/20 05:10:18;;;;;;;20.90;12.32;;;8.10;99.90;;;;;;4991007;28;20061;-74
2023/03/20 05:12:43;;;;;;;19.17;12.68;;;8.00;99.90;;;;;;4988830;28;20139;-74
2023/03/20 05:15:09;;;;;;;17.02;11.15;;;8.00;99.90;;;;;;4973397;28;20113;-74
2023/03/20 05:17:35;;;;;;;19.45;11.50;;;8.00;99.90;;;;;;4989660;28;20494;-74
2023/03/20 05:20:02;;;;;;;23.60;11.02;;;8.00;99.90;;;;;;4957222;28;20042;-74
2023/03/20 05:22:27;;;;;;;17.88;10.38;;;8.00;99.90;;;;;;4983441;28;20755;-74
2023/03/20 05:24:53;;;;;;;18.50;10.85;;;8.00;99.90;;;;;;4994353;28;20058;-74
2023/03/20 05:27:19;;;;;;;22.23;12.10;;;8.00;99.90;;;;;;4990495;28;20050;-74
2023/03/20 05:29:45;;;;;;;23.48;12.77;;;8.00;99.90;;;;;;4970416;28;20046;-74
2023/03/20 05:32:11;;;;;;;18.55;11.75;;;7.90;99.90;;;;;;4990216;28;20056;-74
2023/03/20 05:34:37;;;;;;;16.42;11.90;;;7.90;99.90;;;;;;4975310;28;20054;-74
2023/03/20 05:37:03;;;;;;;22.25;14.23;;;7.90;99.90;;;;;;4972374;28;20039;-74
2023/03/20 05:39:29;;;;;;;20.17;12.90;;;8.00;99.90;;;;;;4990214;28;20121;-74
2023/03/20 05:41:54;;;;;;;21.58;13.98;;;7.90;99.90;;;;;;4972481;28;20531;-74
2023/03/20 05:44:20;;;;;;;22.20;14.55;;;7.90;99.90;;;;;;4990133;28;20076;-74
2023/03/20 05:46:46;;;;;;;27.15;14.30;;;7.90;99.90;;;;;;4969653;28;20050;-74
2023/03/20 05:49:12;;;;;;;25.05;13.77;;;7.90;99.90;;;;;;4972721;28;20100;-74
2023/03/20 05:51:37;;;;;;;22.55;15.02;;;8.00;99.90;;;;;;4972469;28;20519;-74
2023/03/20 05:54:03;;;;;;;29.88;15.55;;;7.90;99.90;;;;;;4989557;28;20093;-74
2023/03/20 05:56:29;;;;;;;28.63;15.48;;;7.90;99.90;;;;;;4990205;28;20040;-74
2023/03/20 05:58:55;;;;;;;26.55;16.40;;;7.90;99.90;;;;;;4987613;28;20046;-74
2023/03/20 06:01:21;;;;;;;30.38;17.17;;;7.90;99.90;;;;;;4989924;28;20061;-73
2023/03/20 06:03:47;;;;;;;24.88;16.77;;;7.90;99.90;;;;;;4985628;28;20116;-74
2023/03/20 06:06:14;;;;;;;28.05;15.82;;;7.90;99.90;;;;;;4987394;28;20112;-74
2023/03/20 06:08:41;;;;;;;27.20;17.52;;;7.90;99.90;;;;;;4988852;28;20058;-74
2023/03/20 06:11:07;;;;;;;28.85;16.50;;;7.90;99.90;;;;;;4988589;28;20058;-74
2023/03/20 06:13:33;;;;;;;28.08;16.55;;;7.90;99.90;;;;;;4989758;28;20119;-74
2023/03/20 06:15:58;;;;;;;28.40;16.50;;;8.00;99.90;;;;;;4972721;28;20058;-74
2023/03/20 06:18:24;;;;;;;30.63;16.30;;;7.90;99.90;;;;;;4989322;28;20407;-74
2023/03/20 06:20:54;;;;;;;29.48;17.17;;;7.90;99.90;;;;;;4969854;28;20061;-74
2023/03/20 06:23:20;;;;;;;25.88;17.40;;;8.00;99.90;;;;;;4988117;28;20054;-74
2023/03/20 06:25:46;;;;;;;26.45;16.30;;;7.90;99.90;;;;;;4993405;28;20548;-74
2023/03/20 06:28:12;;;;;;;36.45;17.05;;;7.90;99.90;;;;;;4989436;28;20054;-74
2023/03/20 06:30:38;;;;;;;24.85;16.73;;;8.00;99.90;;;;;;4988509;28;20034;-74
2023/03/20 06:33:05;;;;;;;25.52;16.60;;;8.00;99.90;;;;;;4987968;28;20086;-74
2023/03/20 06:35:32;;;;;;;30.47;16.33;;;8.00;99.90;;;;;;4989004;28;20938;-73
2023/03/20 06:37:58;;;;;;;27.00;15.75;;;8.00;99.90;;;;;;4987684;28;20049;-74
2023/03/20 06:40:26;;;;;;;24.40;15.30;;;8.00;99.90;;;;;;4985142;28;20419;-75
2023/03/20 06:42:52;;;;;;;34.75;15.43;;;8.10;99.90;;;;;;4989112;28;20087;-75
2023/03/20 06:45:19;;;;;;;25.58;17.23;;;8.10;99.90;;;;;;4988266;28;20057;-75
2023/03/20 06:47:46;;;;;;;23.48;15.65;;;8.10;99.90;;;;;;4971317;28;20046;-74
2023/03/20 06:50:12;;;;;;;21.08;15.40;;;8.10;99.90;;;;;;4988422;28;20104;-75
2023/03/20 06:52:38;;;;;;;31.67;15.98;;;8.20;99.90;;;;;;4989049;28;20042;-75
2023/03/20 06:55:05;;;;;;;24.67;14.93;;;8.20;99.90;;;;;;4985516;28;20273;-75
2023/03/20 06:57:31;;;;;;;21.20;14.07;;;8.20;99.90;;;;;;4967713;28;20054;-75
2023/03/20 06:59:57;;;;;;;22.25;14.20;;;8.20;99.90;;;;;;4967816;28;20506;-74
2023/03/20 07:02:24;;;;;;;22.63;14.30;;;8.20;99.90;;;;;;4985546;28;20113;-75
2023/03/20 07:04:50;;;;;;;23.43;12.73;;;8.30;99.90;;;;;;4970396;28;20054;-75
2023/03/20 07:07:16;;;;;;;28.25;14.95;;;8.30;99.90;;;;;;4970108;28;20112;-75
2023/03/20 07:09:42;;;;;;;23.85;13.80;;;8.40;99.90;;;;;;4970187;28;20046;-75
2023/03/20 07:12:15;;;;;;;21.90;14.52;;;8.40;99.90;;;;;;4985512;28;20412;-74
2023/03/20 07:14:42;;;;;;;25.45;14.32;;;8.40;99.90;;;;;;4979096;28;20055;-74
2023/03/20 07:17:09;;;;;;;21.08;14.68;;;8.40;99.90;;;;;;4987473;28;20138;-74
2023/03/20 07:19:35;;;;;;;24.08;14.27;;;8.50;99.90;;;;;;4991234;28;20385;-74
2023/03/20 07:22:05;;;;;;;19.92;13.35;;;8.40;99.90;;;;;;4988339;28;20050;-74
2023/03/20 07:24:31;;;;;;;26.45;14.18;;;8.50;99.90;;;;;;4991128;28;20058;-74
2023/03/20 07:26:57;;;;;;;23.55;14.70;;;8.50;99.90;;;;;;4971563;28;20553;-74
2023/03/20 07:29:23;;;;;;;23.20;15.02;;;8.50;99.90;;;;;;4987584;28;20069;-74
2023/03/20 07:31:48;;;;;;;22.08;14.70;;;8.50;99.90;;;;;;4983462;28;20488;-74
2023/03/20 07:34:15;;;;;;;29.52;14.23;;;8.40;99.90;;;;;;4987944;28;20427;-74
2023/03/20 07:36:40;;;;;;;30.27;14.60;;;8.50;99.90;;;;;;4988489;28;20042;-74
2023/03/20 07:39:07;;;;;;;20.05;12.82;;;8.50;99.90;;;;;;4987403;28;20046;-74
2023/03/20 07:41:33;;;;;;;23.10;13.98;;;8.60;99.90;;;;;;4973155;28;20089;-74
2023/03/20 07:43:59;;;;;;;29.35;14.27;;;8.60;99.90;;;;;;4986762;28;20077;-74
2023/03/20 07:46:25;;;;;;;21.25;13.57;;;8.60;99.90;;;;;;4987544;28;20066;-74
2023/03/20 07:48:51;;;;;;;22.15;13.90;;;8.60;99.90;;;;;;4982702;28;20108;-74
2023/03/20 07:51:16;;;;;;;29.52;14.20;;;8.70;99.90;;;;;;4970650;28;20582;-74
2023/03/20 07:53:42;;;;;;;29.38;13.45;;;8.60;99.90;;;;;;4987474;28;20137;-74
2023/03/20 07:56:09;;;;;;;22.98;13.50;;;8.70;99.90;;;;;;4984745;28;20109;-74
2023/03/20 07:58:35;;;;;;;24.23;14.35;;;8.80;99.90;;;;;;4986612;28;20047;-74
2023/03/20 08:01:01;;;;;;;28.15;13.32;;;8.80;99.90;;;;;;4985704;28;20042;-74
2023/03/20 08:03:27;;;;;;;18.13;13.32;;;8.80;99.90;;;;;;4970391;28;20058;-75
2023/03/20 08:05:53;;;;;;;24.73;14.45;;;8.90;99.90;;;;;;4984136;28;20447;-75
2023/03/20 08:08:20;;;;;;;22.65;13.27;;;8.90;99.90;;;;;;4970654;28;20054;-74
2023/03/20 08:10:47;;;;;;;21.08;13.70;;;8.90;99.90;;;;;;4986756;28;20046;-74
2023/03/20 08:13:13;;;;;;;24.63;13.70;;;9.00;99.90;;;;;;4991095;28;20050;-74
2023/03/20 08:15:39;;;;;;;22.80;15.13;;;9.10;99.90;;;;;;4988379;28;20049;-74
2023/03/20 08:18:05;;;;;;;26.55;14.50;;;9.00;99.90;;;;;;4990909;28;20056;-74
2023/03/20 08:20:30;;;;;;;24.70;13.40;;;9.10;99.90;;;;;;4973840;28;20531;-75
2023/03/20 08:22:56;;;;;;;22.52;13.48;;;9.10;99.90;;;;;;4969853;28;20130;-74
2023/03/20 08:25:22;;;;;;;24.42;14.48;;;9.20;99.90;;;;;;4977575;28;20058;-74
2023/03/20 08:27:48;;;;;;;25.65;13.98;;;9.10;99.90;;;;;;4987073;28;20047;-74
2023/03/20 08:30:14;;;;;;;20.67;13.88;;;9.10;99.90;;;;;;4967445;28;20055;-74
2023/03/20 08:32:40;;;;;;;19.60;13.82;;;9.30;99.90;;;;;;4986779;28;20046;-74
2023/03/20 08:35:07;;;;;;;31.10;15.15;;;9.20;99.90;;;;;;4970309;28;20043;-74
2023/03/20 08:37:34;;;;;;;24.38;14.13;;;9.30;99.90;;;;;;4970408;28;20053;-74
2023/03/20 08:40:00;;;;;;;23.50;13.73;;;9.40;99.90;;;;;;4969936;28;20054;-74
2023/03/20 08:42:26;;;;;;;22.17;13.68;;;9.40;99.90;;;;;;4971766;28;20136;-74
2023/03/20 08:44:51;;;;;;;21.80;14.52;;;9.50;99.90;;;;;;4968680;28;20866;-74
2023/03/20 08:47:18;;;;;;;23.20;14.68;;;9.60;99.90;;;;;;4968547;28;20039;-74
2023/03/20 08:49:44;;;;;;;24.98;14.18;;;9.70;99.90;;;;;;4967512;28;20055;-74
2023/03/20 08:52:09;;;;;;;21.63;15.60;;;9.70;99.90;;;;;;4968180;28;20118;-75
2023/03/20 08:54:35;;;;;;;31.20;16.95;;;9.80;99.90;;;;;;4982765;28;20480;-74
2023/03/20 08:57:01;;;;;;;27.48;16.08;;;9.90;99.90;;;;;;4969888;28;20039;-74
2023/03/20 08:59:27;;;;;;;22.00;14.38;;;10.00;99.90;;;;;;4985649;28;20134;-75
2023/03/20 09:01:52;;;;;;;25.45;15.77;;;10.10;99.90;;;;;;4969846;28;20047;-74
2023/03/20 09:04:18;;;;;;;25.10;14.63;;;10.10;99.90;;;;;;4971023;28;20554;-74
2023/03/20 09:06:43;;;;;;;20.63;14.40;;;10.20;99.90;;;;;;4970755;28;20054;-74
2023/03/20 09:09:09;;;;;;;24.50;15.85;;;10.20;99.90;;;;;;4968331;28;20584;-74
2023/03/20 09:11:35;;;;;;;30.55;13.80;;;10.10;99.90;;;;;;4970971;28;20122;-73
2023/03/20 09:14:02;;;;;;;22.00;14.32;;;10.20;99.90;;;;;;4974858;28;20051;-75
2023/03/20 09:16:28;;;;;;;24.08;15.45;;;10.20;99.90;;;;;;4986345;28;20074;-73
2023/03/20 09:18:54;;;;;;;30.30;16.00;;;10.30;99.90;;;;;;4968824;28;20487;-73
2023/03/20 09:21:19;;;;;;;24.80;14.38;;;10.30;99.90;;;;;;4984743;28;20042;-74
2023/03/20 09:23:46;;;;;;;20.73;15.40;;;10.30;99.90;;;;;;4982457;28;20050;-73
2023/03/20 09:26:11;;;;;;;19.50;14.63;;;10.30;99.90;;;;;;4989724;28;20676;-73
2023/03/20 09:28:37;;;;;;;26.90;16.02;;;10.50;99.90;;;;;;4990743;28;20049;-73
2023/03/20 09:31:03;;;;;;;26.48;16.35;;;10.60;99.90;;;;;;4990508;28;20042;-74
2023/03/20 09:33:29;;;;;;;27.52;17.13;;;10.80;99.90;;;;;;4989283;28;20171;-73
2023/03/20 09:35:54;;;;;;;22.88;16.95;;;10.90;99.90;;;;;;4972980;28;20129;-73
2023/03/20 09:38:21;;;;;;;26.48;15.38;;;11.00;99.90;;;;;;4987592;28;20050;-73
2023/03/20 09:40:53;;;;;;;19.88;13.80;;;11.00;99.90;;;;;;4976640;28;20088;-73
2023/03/20 09:43:45;;;;;;;20.70;14.02;;;11.10;99.90;;;;;;4982949;28;20042;-74
2023/03/20 09:46:37;;;;;;;23.08;15.50;;;11.20;99.90;;;;;;4989472;28;20054;-73
2023/03/20 09:49:44;;;;;;;21.13;14.40;;;11.40;99.90;;;;;;4965280;28;20136;-73
2023/03/20 09:52:31;;;;;;;18.73;13.85;;;11.70;99.90;;;;;;4971674;28;20082;-74
2023/03/20 09:55:07;;;;;;;29.05;15.25;;;11.90;99.90;;;;;;4972482;28;20050;-74
2023/03/20 09:57:42;;;;;;;21.13;13.25;;;12.00;99.90;;;;;;4985542;28;20125;-74
2023/03/20 10:00:17;;;;;;;19.63;14.63;;;12.10;99.90;;;;;;4989081;28;20073;-74
2023/03/20 10:02:59;;;;;;;22.15;15.73;;;12.30;99.90;;;;;;4972512;28;20377;-73
2023/03/20 10:05:28;;;;;;;21.52;13.95;;;12.50;99.90;;;;;;4987901;28;20046;-74
2023/03/20 10:07:56;;;;;;;19.40;13.98;;;12.50;99.90;;;;;;4963566;28;20096;-73
2023/03/20 10:10:49;;;;;;;18.60;12.73;;;12.60;99.90;;;;;;4969561;28;20082;-73
2023/03/20 10:13:37;;;;;;;21.73;12.80;;;12.60;99.90;;;;;;4962180;28;20066;-73
2023/03/20 10:16:15;;;;;;;18.50;11.93;;;12.60;99.90;;;;;;4985651;28;20085;-73
2023/03/20 10:18:45;;;;;;;;;;;12.40;99.90;;;;;;4982546;28;20050;-73
2023/03/20 10:21:25;;;;;;;22.83;12.60;;;12.40;99.90;;;;;;4970135;28;19976;-73
2023/03/20 10:23:57;;;;;;;18.58;13.40;;;12.50;99.90;;;;;;4988497;28;20086;-73
2023/03/20 10:26:24;;;;;;;19.83;12.45;;;12.50;99.90;;;;;;4965494;28;20497;-74
2023/03/20 10:28:58;;;;;;;18.30;11.93;;;12.60;99.90;;;;;;4970098;28;20046;-73
2023/03/20 10:31:36;;;;;;;18.25;13.10;;;12.60;99.90;;;;;;4967772;28;20078;-73
2023/03/20 10:34:40;;;;;;;20.75;13.35;;;12.70;99.90;;;;;;4967654;28;20039;-73
2023/03/20 10:37:31;;;;;;;21.73;12.85;;;12.80;99.90;;;;;;4933243;28;20043;-73
2023/03/20 10:40:29;;;;;;;22.60;14.48;;;12.80;99.90;;;;;;4965742;28;20065;-73
2023/03/20 10:42:56;;;;;;;;;;;12.80;99.90;;;;;;4967903;28;20055;-73
2023/03/20 10:45:43;;;;;;;21.33;15.80;;;12.70;99.90;;;;;;4969010;28;19961;-73
2023/03/20 10:48:39;;;;;;;21.38;15.35;;;12.60;99.90;;;;;;4968716;28;20118;-73
2023/03/20 10:51:13;;;;;;;31.77;15.57;;;12.50;99.90;;;;;;4982399;28;20047;-73
2023/03/20 10:53:54;;;;;;;20.13;16.55;;;12.40;99.90;;;;;;4963134;28;20149;-73
2023/03/20 10:56:44;;;;;;;22.15;14.55;;;12.30;99.90;;;;;;4968375;28;20114;-73
2023/03/20 10:59:19;;;;;;;18.67;15.05;;;12.20;99.90;;;;;;4967429;28;20472;-73
2023/03/20 11:01:45;;;;;;;18.40;14.82;;;12.10;99.90;;;;;;4984144;28;20571;-73
2023/03/20 11:04:12;;;;;;;18.33;15.75;;;12.00;99.90;;;;;;4984416;28;20161;-73
2023/03/20 11:06:48;;;;;;;30.48;18.48;;;11.90;99.90;;;;;;4984038;28;20050;-73
2023/03/20 11:09:23;;;;;;;24.98;18.73;;;11.90;99.90;;;;;;4962647;28;20063;-73
2023/03/20 11:11:55;;;;;;;22.10;17.13;;;11.80;99.90;;;;;;4968112;28;20489;-73
2023/03/20 11:14:25;;;;;;;24.95;17.27;;;11.70;99.90;;;;;;4968353;28;20587;-73
2023/03/20 11:16:59;;;;;;;25.83;18.15;;;11.70;99.90;;;;;;4968121;28;20546;-73
2023/03/20 11:19:24;;;;;;;26.40;17.90;;;11.60;99.90;;;;;;4983370;28;20050;-73
2023/03/20 11:21:55;;;;;;;23.55;19.80;;;11.50;99.90;;;;;;4983822;28;20404;-72
2023/03/20 11:24:40;;;;;;;31.48;18.30;;;11.50;99.90;;;;;;4973009;28;20058;-73
2023/03/20 11:27:19;;;;;;;26.63;18.30;;;11.40;99.90;;;;;;4965615;28;20050;-73
2023/03/20 11:29:48;;;;;;;25.52;16.98;;;11.40;99.90;;;;;;4978536;28;20094;-73
2023/03/20 11:32:27;;;;;;;19.58;14.50;;;11.30;99.90;;;;;;4967884;28;20563;-73
2023/03/20 11:34:56;;;;;;;19.23;16.05;;;11.30;99.90;;;;;;4964610;28;20459;-73
2023/03/20 11:37:33;;;;;;;29.15;15.98;;;11.20;99.90;;;;;;4968205;28;20062;-72
2023/03/20 11:40:23;;;;;;;23.05;15.80;;;11.20;99.90;;;;;;4985303;28;20058;-71
2023/03/20 11:43:00;;;;;;;16.55;14.85;;;11.10;99.90;;;;;;4951924;28;20131;-71
2023/03/20 11:45:27;;;;;;;14.27;12.10;;;11.10;99.90;;;;;;4986420;28;20043;-72
2023/03/20 11:47:56;;;;;;;13.65;11.95;;;11.10;99.90;;;;;;4987901;28;20514;-71
2023/03/20 11:50:28;;;;;;;;;;;11.20;99.90;;;;;;4987705;28;20063;-71
2023/03/20 11:52:54;;;;;;;19.55;14.93;;;11.10;99.90;;;;;;4970337;28;19961;-72
2023/03/20 11:55:34;;;;;;;17.75;13.65;;;11.10;99.90;;;;;;4970371;28;20082;-73
2023/03/20 11:58:03;;;;;;;22.13;14.40;;;11.10;99.90;;;;;;4971436;28;20842;-72
2023/03/20 12:00:37;;;;;;;25.92;15.30;;;11.10;99.90;;;;;;4983462;28;20089;-73
2023/03/20 12:03:03;;;;;;;23.17;15.48;;;11.10;99.90;;;;;;4972701;28;20165;-73
2023/03/20 12:05:35;;;;;;;20.10;15.50;;;11.10;99.90;;;;;;4971142;28;20114;-72
2023/03/20 12:08:23;;;;;;;16.65;14.00;;;11.10;99.90;;;;;;4971395;28;20046;-72
2023/03/20 12:10:55;;;;;;;20.48;12.70;;;11.10;99.90;;;;;;4981269;28;20154;-72
2023/03/20 12:13:36;;;;;;;28.00;13.18;;;11.00;99.90;;;;;;4972118;28;20116;-72
2023/03/20 12:16:10;;;;;;;18.33;13.20;;;11.00;99.90;;;;;;4968302;28;20047;-73
2023/03/20 12:18:43;;;;;;;22.70;13.13;;;11.00;99.90;;;;;;4979981;28;20047;-72
2023/03/20 12:21:23;;;;;;;25.35;14.93;;;11.00;99.90;;;;;;4971644;28;20059;-73
2023/03/20 12:23:55;;;;;;;23.10;14.30;;;10.90;99.90;;;;;;4970980;28;20047;-72
2023/03/20 12:26:59;;;;;;;32.53;13.80;;;10.90;99.90;;;;;;4963767;28;20050;-73
2023/03/20 12:29:30;;;;;;;14.43;12.23;;;10.90;99.90;;;;;;4986728;28;20055;-72
2023/03/20 12:32:02;;;;;;;17.00;12.93;;;10.90;99.90;;;;;;4971209;28;20054;-73
2023/03/20 12:34:37;;;;;;;14.30;11.98;;;10.90;99.90;;;;;;4966988;28;20058;-72
2023/03/20 12:37:02;;;;;;;22.55;12.73;;;10.90;99.90;;;;;;4971048;28;20497;-73
2023/03/20 12:39:37;;;;;;;16.13;11.27;;;10.90;99.90;;;;;;4971204;28;20050;-72
2023/03/20 12:42:21;;;;;;;15.48;10.23;;;10.90;99.90;;;;;;4971858;28;20122;-72
2023/03/20 12:45:18;;;;;;;16.77;8.00;;;10.90;99.90;;;;;;4969901;28;20496;-72
2023/03/20 12:48:21;;;;;;;18.48;7.90;;;11.00;99.90;;;;;;4969315;28;20519;-72
2023/03/20 12:51:10;;;;;;;6.47;5.15;;;11.00;99.90;;;;;;4968242;28;20091;-72
2023/03/20 12:53:41;;;;;;;8.38;5.43;;;10.90;99.90;;;;;;4970784;28;20054;-72
2023/03/20 12:56:16;;;;;;;7.80;5.25;;;10.90;99.90;;;;;;4970138;28;20057;-72